createdAt,value
2019-05-18T00:02:01.396Z,17.60
2019-05-18T00:04:37.512Z,17.70
2019-05-18T00:07:43.719Z,18.00
2019-05-18T00:11:20.167Z,18.30
2019-05-18T00:38:05.172Z,18.00
2019-05-18T00:41:01.408Z,18.00
2019-05-18T00:43:54.566Z,18.00
2019-05-18T01:14:15.147Z,18.40
2019-05-18T01:30:50.347Z,18.60
2019-05-18T01:44:28.346Z,18.10
2019-05-18T02:02:20.764Z,17.70
2019-05-18T02:02:49.956Z,17.80
2019-05-18T03:10:57.914Z,17.70
2019-05-18T04:09:07.196Z,17.00
2019-05-18T04:25:12.218Z,16.80
2019-05-18T04:27:52.558Z,16.70
2019-05-18T04:39:27.506Z,16.60
2019-05-18T04:43:22.474Z,16.40
2019-05-18T04:46:25.589Z,16.30
2019-05-18T04:52:35.526Z,16.20
2019-05-18T05:01:52.597Z,16.10
2019-05-18T05:14:10.495Z,15.50
2019-05-18T05:17:32.296Z,15.50
2019-05-18T05:28:34.200Z,15.50
2019-05-18T05:43:06.376Z,15.60
2019-05-18T07:33:56.966Z,14.20
2019-05-18T07:42:13.811Z,14.00
2019-05-18T07:45:29.798Z,14.00
2019-05-18T07:51:07.595Z,13.90
2019-05-18T07:53:50.097Z,13.40
2019-05-18T07:56:30.170Z,13.90
2019-05-18T07:59:25.692Z,13.90
2019-05-18T08:05:52.742Z,14.10
2019-05-18T08:11:14.879Z,14.30
2019-05-18T08:51:38.106Z,13.70
2019-05-18T09:16:50.279Z,13.60
2019-05-18T09:23:12.483Z,13.20
2019-05-18T09:26:15.966Z,13.50
2019-05-18T09:29:06.172Z,13.50
2019-05-18T09:38:54.955Z,13.50
2019-05-18T09:41:45.903Z,13.60
2019-05-18T09:44:44.803Z,13.60
2019-05-18T09:54:00.065Z,13.80
2019-05-18T09:58:19.661Z,13.90
2019-05-18T09:59:45.871Z,13.90
2019-05-18T10:08:06.829Z,13.80
2019-05-18T10:09:39.556Z,13.80
2019-05-18T10:10:49.435Z,13.70
2019-05-18T10:13:35.011Z,13.70
2019-05-18T10:16:20.537Z,13.60
2019-05-18T10:22:29.021Z,13.60
2019-05-18T10:28:39.413Z,13.50
2019-05-18T10:31:39.566Z,13.50
2019-05-18T10:36:55.747Z,13.50
2019-05-18T10:39:28.650Z,13.50
2019-05-18T10:46:32.660Z,13.40
2019-05-18T10:52:24.221Z,13.50
2019-05-18T10:57:38.087Z,13.70
2019-05-18T11:00:23.778Z,13.70
2019-05-18T11:02:57.092Z,13.80
2019-05-18T11:05:35.663Z,13.90
2019-05-18T11:08:11.103Z,13.80
2019-05-18T11:10:53.822Z,13.80
2019-05-18T11:16:21.527Z,13.60
2019-05-18T11:18:52.848Z,13.50
2019-05-18T11:21:30.945Z,13.50
2019-05-18T11:24:06.313Z,13.40
2019-05-18T11:26:39.817Z,13.40
2019-05-18T11:29:12.529Z,13.40
2019-05-18T11:31:45.491Z,13.50
2019-05-18T11:34:21.256Z,13.50
2019-05-18T11:36:53.826Z,13.60
2019-05-18T11:39:26.670Z,13.70
2019-05-18T11:41:59.218Z,13.70
2019-05-18T11:44:31.962Z,13.70
2019-05-18T11:47:04.752Z,13.70
2019-05-18T11:49:37.561Z,13.60
2019-05-18T11:52:10.433Z,13.60
2019-05-18T11:54:43.515Z,13.50
2019-05-18T11:57:16.244Z,13.40
2019-05-18T11:59:49.377Z,13.30
2019-05-18T12:02:23.357Z,13.20
2019-05-18T12:04:57.191Z,13.10
2019-05-18T12:07:29.945Z,13.00
2019-05-18T12:10:03.090Z,12.90
2019-05-18T12:12:36.111Z,12.90
2019-05-18T12:15:10.110Z,12.90
2019-05-18T12:17:42.763Z,12.90
2019-05-18T12:20:23.251Z,12.90
2019-05-18T12:22:54.451Z,13.00
2019-05-18T12:25:27.657Z,13.00
2019-05-18T12:28:00.339Z,13.10
2019-05-18T12:30:33.251Z,13.20
2019-05-18T12:33:05.976Z,13.20
2019-05-18T12:35:38.954Z,13.20
2019-05-18T12:38:11.962Z,13.20
2019-05-18T12:40:44.630Z,13.20
2019-05-18T12:43:17.424Z,13.10
2019-05-18T12:45:50.146Z,13.00
2019-05-18T12:48:23.763Z,13.00
2019-05-18T12:50:59.512Z,13.00
2019-05-18T12:53:32.478Z,13.00
2019-05-18T12:56:06.046Z,13.00
2019-05-18T12:58:38.717Z,13.00
2019-05-18T13:01:11.570Z,12.90
2019-05-18T13:03:44.437Z,12.80
2019-05-18T13:06:17.486Z,12.80
2019-05-18T13:08:50.916Z,12.70
2019-05-18T13:11:24.354Z,12.70
2019-05-18T13:13:57.041Z,12.70
2019-05-18T13:16:30.218Z,12.70
2019-05-18T13:19:03.031Z,12.60
2019-05-18T13:21:35.807Z,12.60
2019-05-18T13:24:08.410Z,12.60
2019-05-18T13:26:40.834Z,12.50
2019-05-18T13:29:13.573Z,12.50
2019-05-18T13:31:47.299Z,12.50
2019-05-18T13:34:20.375Z,12.50
2019-05-18T13:36:53.336Z,12.50
2019-05-18T13:39:26.700Z,12.50
2019-05-18T13:41:59.626Z,12.50
2019-05-18T13:44:32.990Z,12.50
2019-05-18T13:47:05.892Z,12.50
2019-05-18T13:49:38.955Z,12.50
2019-05-18T13:52:11.755Z,12.40
2019-05-18T13:55:01.201Z,12.40
2019-05-18T13:57:18.870Z,12.40
2019-05-18T13:59:52.005Z,12.40
2019-05-18T14:02:25.018Z,12.40
2019-05-18T14:04:58.068Z,12.30
2019-05-18T14:07:30.904Z,12.40
2019-05-18T14:10:03.843Z,12.40
2019-05-18T14:12:36.791Z,12.40
2019-05-18T14:15:10.463Z,12.40
2019-05-18T14:17:43.520Z,12.50
2019-05-18T14:20:16.664Z,12.60
2019-05-18T14:22:49.460Z,12.60
2019-05-18T14:25:22.954Z,12.70
2019-05-18T14:27:55.917Z,12.70
2019-05-18T14:30:28.899Z,12.70
2019-05-18T14:33:01.864Z,12.70
2019-05-18T14:35:34.703Z,12.70
2019-05-18T14:38:07.469Z,12.70
2019-05-18T14:40:40.180Z,12.60
2019-05-18T14:43:12.847Z,12.60
2019-05-18T14:45:48.785Z,12.60
2019-05-18T14:48:20.350Z,12.50
2019-05-18T14:50:53.590Z,12.60
2019-05-18T14:53:26.281Z,12.60
2019-05-18T14:56:00.020Z,12.70
2019-05-18T14:58:32.871Z,12.80
2019-05-18T15:01:05.923Z,12.90
2019-05-18T15:03:39.154Z,12.90
2019-05-18T15:06:13.507Z,12.90
2019-05-18T15:08:46.315Z,12.90
2019-05-18T15:11:19.540Z,12.80
2019-05-18T15:13:52.368Z,12.80
2019-05-18T15:16:25.670Z,12.80
2019-05-18T15:18:58.646Z,12.80
2019-05-18T15:21:31.903Z,12.80
2019-05-18T15:24:04.872Z,12.90
2019-05-18T15:26:37.882Z,13.00
2019-05-18T15:29:10.903Z,13.10
2019-05-18T15:31:43.834Z,13.10
2019-05-18T15:34:16.885Z,13.20
2019-05-18T15:36:50.177Z,13.20
2019-05-18T15:39:23.955Z,13.10
2019-05-18T15:41:56.864Z,13.10
2019-05-18T15:44:30.054Z,13.10
2019-05-18T15:47:03.151Z,13.10
2019-05-18T15:49:35.924Z,13.00
2019-05-18T15:52:09.331Z,13.00
2019-05-18T15:54:42.103Z,12.90
2019-05-18T15:57:15.068Z,12.90
2019-05-18T15:59:47.858Z,12.90
2019-05-18T16:02:20.966Z,12.90
2019-05-18T16:04:53.945Z,12.80
2019-05-18T16:07:27.227Z,12.80
2019-05-18T16:10:00.169Z,12.80
2019-05-18T16:12:33.014Z,12.90
2019-05-18T16:15:05.925Z,13.00
2019-05-18T16:17:40.155Z,13.10
2019-05-18T16:20:13.027Z,13.10
2019-05-18T16:22:45.678Z,13.10
2019-05-18T16:25:18.611Z,13.00
2019-05-18T16:27:51.355Z,13.00
2019-05-18T16:30:24.787Z,13.00
2019-05-18T16:32:57.907Z,13.00
2019-05-18T16:35:30.941Z,13.00
2019-05-18T16:38:03.973Z,13.10
2019-05-18T16:40:37.010Z,13.10
2019-05-18T16:43:10.050Z,13.10
2019-05-18T16:45:43.001Z,13.20
2019-05-18T16:48:16.073Z,13.20
2019-05-18T16:50:49.579Z,13.30
2019-05-18T16:53:22.575Z,13.30
2019-05-18T16:55:56.601Z,13.40
2019-05-18T16:58:29.592Z,13.40
2019-05-18T17:01:05.105Z,13.40
2019-05-18T17:03:36.726Z,13.40
2019-05-18T17:06:10.031Z,13.50
2019-05-18T17:08:43.063Z,13.50
2019-05-18T17:11:18.149Z,13.50
2019-05-18T17:13:51.167Z,13.50
2019-05-18T17:16:24.403Z,13.40
2019-05-18T17:18:58.048Z,13.40
2019-05-18T17:21:31.243Z,13.40
2019-05-18T17:24:04.534Z,13.40
2019-05-18T17:26:51.503Z,13.40
2019-05-18T17:29:12.247Z,13.30
2019-05-18T17:31:45.185Z,13.30
2019-05-18T17:34:18.673Z,13.20
2019-05-18T17:36:52.641Z,13.20
2019-05-18T17:39:26.957Z,13.20
2019-05-18T17:41:59.956Z,13.10
2019-05-18T17:44:33.315Z,13.10
2019-05-18T17:47:07.249Z,13.10
2019-05-18T17:49:40.221Z,13.10
2019-05-18T17:52:13.019Z,13.00
2019-05-18T17:54:46.444Z,13.00
2019-05-18T17:57:19.366Z,13.00
2019-05-18T17:59:52.538Z,13.00
2019-05-18T18:02:25.700Z,12.90
2019-05-18T18:04:59.758Z,12.90
2019-05-18T18:07:32.674Z,12.90
2019-05-18T18:10:06.085Z,12.90
2019-05-18T18:12:38.954Z,13.00
2019-05-18T18:15:13.204Z,13.00
2019-05-18T18:17:46.572Z,13.00
2019-05-18T18:20:20.931Z,13.10
2019-05-18T18:22:53.732Z,13.10
2019-05-18T18:25:26.927Z,13.20
2019-05-18T18:28:00.228Z,13.20
2019-05-18T18:30:33.645Z,13.30
2019-05-18T18:33:06.848Z,13.30
2019-05-18T18:35:40.886Z,13.30
2019-05-18T18:38:13.761Z,13.40
2019-05-18T18:40:47.057Z,13.40
2019-05-18T18:43:20.510Z,13.40
2019-05-18T18:45:54.071Z,13.50
2019-05-18T18:48:27.024Z,13.50
2019-05-18T18:51:00.225Z,13.60
2019-05-18T18:53:33.138Z,13.70
2019-05-18T18:56:07.991Z,13.70
2019-05-18T18:58:41.391Z,13.70
2019-05-18T19:01:14.684Z,13.80
2019-05-18T19:03:47.574Z,13.80
2019-05-18T19:06:20.476Z,13.70
2019-05-18T19:08:52.994Z,13.70
2019-05-18T19:11:25.891Z,13.60
2019-05-18T19:13:59.479Z,13.50
2019-05-18T19:16:32.015Z,13.40
2019-05-18T19:19:04.683Z,13.40
2019-05-18T19:21:37.922Z,13.30
2019-05-18T19:24:10.629Z,13.30
2019-05-18T19:26:43.875Z,13.30
2019-05-18T19:29:16.746Z,13.40
2019-05-18T19:31:49.059Z,13.50
2019-05-18T19:34:21.692Z,13.60
2019-05-18T19:36:54.251Z,13.60
2019-05-18T19:39:27.018Z,13.70
2019-05-18T19:41:59.604Z,13.70
2019-05-18T19:47:53.134Z,13.60
2019-05-18T19:53:34.581Z,13.50
2019-05-18T19:56:08.613Z,13.50
2019-05-18T19:58:44.334Z,13.50
2019-05-18T20:01:17.108Z,13.40
2019-05-18T20:03:50.203Z,13.40
2019-05-18T20:06:23.325Z,13.50
2019-05-18T20:08:56.069Z,13.60
2019-05-18T20:11:31.107Z,13.80
2019-05-18T20:14:03.819Z,13.90
2019-05-18T20:16:37.395Z,14.10
2019-05-18T20:19:12.049Z,14.30
2019-05-18T20:21:47.905Z,14.50
2019-05-18T20:24:28.120Z,14.70
2019-05-18T20:27:51.118Z,14.90
2019-05-18T20:30:30.503Z,15.20
2019-05-18T20:33:13.361Z,15.30
2019-05-18T20:36:04.716Z,15.50
2019-05-18T20:38:52.523Z,15.60
2019-05-18T20:41:36.576Z,15.60
2019-05-18T20:44:31.970Z,15.60
2019-05-18T20:47:19.518Z,15.60
2019-05-18T20:50:21.910Z,15.50
2019-05-18T20:59:01.736Z,15.60
2019-05-18T21:11:08.676Z,16.30
2019-05-18T21:14:31.254Z,16.50
2019-05-18T21:17:06.582Z,16.60
2019-05-18T21:26:03.822Z,16.50
2019-05-18T21:29:29.848Z,16.50
2019-05-18T21:39:27.886Z,17.00
2019-05-18T21:50:57.157Z,16.40
2019-05-18T21:57:11.146Z,16.70
2019-05-18T22:05:56.701Z,18.20
2019-05-18T22:08:40.541Z,18.50
2019-05-18T22:14:50.683Z,18.10
2019-05-18T22:26:45.877Z,18.10
2019-05-18T22:29:31.462Z,18.30
2019-05-18T22:32:17.737Z,18.50
2019-05-18T22:35:20.446Z,18.80
2019-05-18T22:37:38.505Z,19.00
2019-05-18T22:40:14.564Z,19.40
2019-05-18T22:42:47.194Z,19.80
2019-05-18T22:45:37.839Z,19.80
2019-05-18T22:48:40.752Z,19.80
2019-05-18T22:51:09.082Z,19.60
2019-05-18T22:53:42.068Z,19.60
2019-05-18T22:56:46.199Z,19.40
2019-05-18T22:59:20.793Z,19.20
2019-05-18T23:01:53.127Z,18.90
2019-05-18T23:04:28.553Z,18.70
2019-05-18T23:07:21.883Z,18.70
2019-05-18T23:09:57.358Z,18.50
2019-05-18T23:12:33.001Z,18.30
2019-05-18T23:15:04.583Z,18.10
2019-05-18T23:17:37.798Z,18.00
2019-05-18T23:20:17.064Z,17.90
2019-05-18T23:22:50.072Z,17.80
2019-05-18T23:25:23.496Z,17.70
2019-05-18T23:30:59.087Z,17.70
2019-05-18T23:33:32.126Z,17.80
2019-05-18T23:36:58.312Z,17.90
2019-05-18T23:39:31.948Z,18.00
2019-05-18T23:42:11.805Z,17.90
2019-05-18T23:45:00.589Z,17.80
2019-05-18T23:47:46.582Z,17.80
2019-05-18T23:50:25.953Z,17.80
2019-05-18T23:53:01.817Z,17.90
2019-05-18T23:55:56.366Z,18.00
